This is the latest recevied weather packets stored in our database for station/object iz1wiy-3. If no packets are shown the sender has not sent any weather packets the latest 10 day(s).
| Time | Temp. | Humidity | Pressure | Rain* | Wind** | Luminosity | Snow |
|---|---|---|---|---|---|---|---|
| 1777670523 | 15° C | 46% | 1025.8 hPa | 0 mm | - | - | - |
| 1777670463 | 15.56° C | 46% | 1025.8 hPa | 0 mm | - | - | - |
| 1777670224 | 16.11° C | 44% | 1025.7 hPa | 0 mm | - | - | - |
| 1777670163 | 16.11° C | 44% | 1025.8 hPa | 0 mm | - | - | - |
| 1777669924 | 16.67° C | 40% | 1025.7 hPa | 0 mm | - | - | - |
| 1777669744 | 16.67° C | 39% | 1025.6 hPa | 0 mm | - | - | - |
| 1777669623 | 16.67° C | 39% | 1025.7 hPa | 0 mm | - | - | - |
| 1777669563 | 17.22° C | 41% | 1025.7 hPa | 0 mm | - | - | - |
| 1777669023 | 17.22° C | 38% | 1025.5 hPa | 0 mm | - | - | - |
| 1777668963 | 17.22° C | 39% | 1025.5 hPa | 0 mm | - | - | - |
| 1777668123 | 17.22° C | 38% | 1025.4 hPa | 0 mm | - | - | - |
| 1777668004 | 17.22° C | 37% | 1025.4 hPa | 0 mm | - | - | - |
| 1777667944 | 17.22° C | 38% | 1025.4 hPa | 0 mm | - | - | - |
| 1777667883 | 17.22° C | 37% | 1025.4 hPa | 0 mm | - | - | - |
| 1777667823 | 17.22° C | 38% | 1025.4 hPa | 0 mm | - | - | - |
| 1777667763 | 17.22° C | 37% | 1025.4 hPa | 0 mm | - | - | - |
| 1777667463 | 17.78° C | 37% | 1025.4 hPa | 0 mm | - | - | - |
| 1777667283 | 17.78° C | 37% | 1025.3 hPa | 0 mm | - | - | - |
| 1777667223 | 17.78° C | 37% | 1025.4 hPa | 0 mm | - | - | - |
| 1777667103 | 17.78° C | 37% | 1025.4 hPa | 0 mm | - | - | - |
| 1777667044 | 17.78° C | 37% | 1025.4 hPa | 0 mm | - | - | - |
| 1777666983 | 17.78° C | 37% | 1025.3 hPa | 0 mm | - | - | - |
| 1777666923 | 17.78° C | 37% | 1025.3 hPa | 0 mm | - | - | - |
| 1777666623 | 17.78° C | 37% | 1025.3 hPa | 0 mm | - | - | - |
| 1777666563 | 17.78° C | 37% | 1025.3 hPa | 0 mm | - | - | - |
* Rain latest hour (hover to see other rain measurements)
** Current wind speed in m/s (hover to see current wind gust speed)